Athol, ID

6:18 AM PDT on September 26, 2016 (GMT -0700)
MesoWest | | Change Station

Elev 2175 ft 48.04 °N, 116.82 °W | Updated 4 hours ago

Clear
Clear
37 °F
Feels Like 37 °F
N
Wind Variable Wind from North
Gusts 0.0 mph

Today
High -- | Low -- °F
--% Chance of Precip.
Yesterday
High -- | Low -- °F
Precip. -- in
Pressure 30.29 in
Visibility 10.0 miles
Clouds Clear
Windchill 37 °F
Dew Point Not available.
Humidity Not available.
Rainfall in
Snow Depth Not available.
6:40 AM 6:35 PM
Waning Crescent, 19% visible
METAR KDEW 261253Z AUTO 01005KT 10SM CLR 08/05 A3030 RMK AO2 SLP255 T00830050
Pressure 30.29 in
Visibility 10.0 miles
Clouds Clear
Windchill 37 °F
Dew Point Not available.
Humidity Not available.
Rainfall in
Snow Depth Not available.
6:40 AM 6:35 PM
Waning Crescent, 19% visible
METAR KDEW 261253Z AUTO 01005KT 10SM CLR 08/05 A3030 RMK AO2 SLP255 T00830050

10-Day Weather Forecast

Almanac

Astronomy

Sep. 26, 2016 Rise Set
Actual Time
Civil Twilight
Nautical Twilight
Astronomical Twilight
Moon
Length of Visible Light
Length of Day
Tomorrow will be .
, % of the Moon is Illuminated

Today's Extremes

State Highs State Lows

Community

WunderPhotos

Upload Photos

1,941,871 photos uploaded!

WunderBlog® & News

Nearby

Air Quality

  Air Quality AQ Index Pollutant
Not available.

Snow Depth

Station Depth Elevation

Earthquake Activity

City Distance Mag. Time & Date
Minimum magnitude displayed is 2.5.

Coastal Water Temperatures

Place Temperature

Stations

Nearby Weather Stations

Station Location Temp. Windchill Dew Point Humidity Wind Precip. Elev Updated Type
                   

Watches & Warnings

There are currently no watches in effect.